Latest Weather Observations for Mt Wellington

IDT60901

Issued at 4:01 pm EDT Tuesday 23 December 2014 (issued every 10 minutes, with the page automatically refreshed every 10 minutes)

About weather observations | Map of Hobart area stations | Latest observations for Hobart area | Other Formats
Station Details ID: 094087 Name: MOUNT WELLINGTON Lat: -42.90 Lon: 147.24 Height: 1260.47 m
Data from the previous 72 hours. | See also: Recent months at Mt Wellington
Date/Time
EDT
Tmp

°C
App
Tmp
°C
Dew
Point
°C
Rel
Hum
%
Delta-T

°C
Wind Press
QNH
hPa
Press
MSL
hPa
Rain
since
9 am
mm
Dir
 
Spd
km/h
Gust
km/h
Spd
kts
Gust
kts
23/04:00pm 8.7 3.4 8.3 97 0.2 WSW 26 32 14 17 - - 4.6
23/03:48pm 9.1 3.4 8.5 96 0.3 WSW 28 37 15 20 - - 3.2
23/03:30pm 11.5 9.7 11.0 97 0.3 N 11 13 6 7 - - 1.0
23/03:00pm 12.1 10.9 11.6 97 0.3 N 9 13 5 7 - - 0.0
23/02:30pm 12.9 11.4 11.8 93 0.6 NW 11 15 6 8 - - 0.0
23/02:00pm 13.9 11.6 11.6 86 1.3 NW 15 20 8 11 - - 0.0
23/01:30pm 14.1 10.7 10.7 80 1.9 NW 19 28 10 15 - - 0.0
23/01:00pm 14.7 10.3 10.3 75 2.5 WNW 24 30 13 16 - - 0.0
23/12:30pm 14.3 9.3 9.7 74 2.5 WNW 26 37 14 20 - - 0.0
23/12:00pm 13.8 7.6 9.3 74 2.5 WNW 32 39 17 21 - - 0.0
23/11:30am 13.5 6.7 9.2 75 2.3 NW 35 44 19 24 - - 0.0
23/11:00am 13.5 5.1 8.8 73 2.5 NW 43 52 23 28 - - 0.0
23/10:30am 13.4 5.4 8.9 74 2.4 NW 41 50 22 27 - - 0.0
23/10:00am 14.2 7.5 9.6 74 2.5 NW 35 48 19 26 - - 0.0
23/09:30am 12.8 5.6 9.1 78 2.0 NNW 37 46 20 25 - - 0.0
23/09:00am 12.7 5.7 8.4 75 2.3 NNW 35 44 19 24 - - 2.8
23/08:30am 12.1 5.0 8.2 77 2.1 N 35 39 19 21 - - 2.8
23/08:00am 11.4 4.5 9.0 85 1.3 N 35 41 19 22 - - 2.8
23/07:30am 10.7 5.3 7.9 83 1.5 NNW 26 33 14 18 - - 2.8
23/07:00am 10.9 6.2 7.6 80 1.7 NNW 22 26 12 14 - - 2.4
23/06:30am 12.3 6.2 8.2 76 2.2 NNW 30 41 16 22 - - 2.2
23/06:00am 12.0 5.5 8.3 78 2.0 NNW 32 41 17 22 - - 2.2
23/05:30am 11.6 6.7 8.5 81 1.6 NNW 24 35 13 19 - - 2.2
23/05:25am 12.0 5.5 8.1 77 2.1 NNW 32 46 17 25 - - 2.2
23/05:14am 13.2 6.1 7.9 70 2.8 NW 35 52 19 28 - - 2.2
23/05:00am 11.9 7.4 8.4 79 1.9 NNW 22 30 12 16 - - 2.2
23/04:30am 13.2 4.5 7.9 70 2.8 NW 43 52 23 28 - - 2.2
23/04:00am 13.8 3.7 7.3 65 3.4 NNW 50 59 27 32 - - 2.2
23/03:30am 12.8 2.1 8.1 73 2.5 NNW 54 65 29 35 - - 2.2
23/03:00am 12.2 0.8 9.2 82 1.6 NNW 59 72 32 39 - - 2.2
23/02:36am 11.3 1.5 8.7 84 1.4 NNW 50 72 27 39 - - 2.0
23/02:30am 11.3 1.5 8.5 83 1.5 NNW 50 67 27 36 - - 2.0
23/02:26am 11.3 2.3 8.7 84 1.4 N 46 67 25 36 - - 2.0
23/02:00am 10.7 3.2 8.1 84 1.4 N 37 52 20 28 - - 1.8
23/01:30am 10.6 3.2 8.2 85 1.3 N 37 50 20 27 - - 1.8
23/01:00am 10.0 4.3 8.3 89 0.9 N 28 37 15 20 - - 1.8
23/12:30am 9.7 4.4 8.6 93 0.6 N 26 32 14 17 - - 1.6
23/12:00am 10.1 4.6 9.2 94 0.5 N 28 32 15 17 - - 1.4
 
Date/Time
EDT
Tmp

°C
App
Tmp
°C
Dew
Point
°C
Rel
Hum
%
Delta-T

°C
Wind Press
QNH
hPa
Press
MSL
hPa
Rain
since
9 am
mm
Dir
 
Spd
km/h
Gust
km/h
Spd
kts
Gust
kts
22/11:30pm 10.3 5.2 9.2 93 0.6 NNW 26 32 14 17 - - 1.2
22/11:00pm 10.4 4.9 9.0 91 0.7 NNW 28 33 15 18 - - 0.8
22/10:30pm 10.0 5.6 9.1 94 0.5 NNW 22 28 12 15 - - 0.6
22/10:00pm 9.9 4.8 9.1 95 0.4 NNW 26 33 14 18 - - 0.6
22/09:30pm 10.2 5.0 8.8 91 0.7 NNW 26 30 14 16 - - 0.4
22/09:00pm 11.0 5.8 8.8 86 1.2 WNW 26 32 14 17 - - 0.4
22/08:30pm 10.6 5.7 8.5 87 1.1 NW 24 30 13 16 - - 0.4
22/08:00pm 11.0 5.7 8.4 84 1.4 NNW 26 32 14 17 - - 0.4
22/07:30pm 11.0 6.1 8.6 85 1.3 NNW 24 30 13 16 - - 0.4
22/07:00pm 11.0 6.8 9.9 93 0.6 NNW 22 28 12 15 - - 0.4
22/06:30pm 10.9 7.7 10.1 95 0.4 NNW 17 26 9 14 - - 0.4
22/06:00pm 11.4 8.4 10.5 94 0.5 N 17 26 9 14 - - 0.4
22/05:30pm 10.8 7.1 10.3 97 0.3 N 20 28 11 15 - - 0.4
22/05:00pm 10.8 8.1 10.3 97 0.3 N 15 24 8 13 - - 0.2
22/04:30pm 11.3 9.5 10.7 96 0.3 N 11 17 6 9 - - 0.2
22/04:00pm 11.4 9.1 10.3 93 0.6 N 13 28 7 15 - - 0.0
22/03:30pm 13.4 10.2 8.5 72 2.6 N 15 35 8 19 - - 0.0
22/03:00pm 12.8 10.4 10.0 83 1.5 N 13 19 7 10 - - 0.0
22/02:30pm 12.5 10.5 10.0 85 1.4 N 11 19 6 10 - - 0.0
22/02:00pm 11.6 9.2 8.8 83 1.5 NNW 11 22 6 12 - - 0.0
22/01:30pm 12.0 8.9 8.8 81 1.7 N 15 24 8 13 - - 0.0
22/01:00pm 10.7 7.2 8.6 87 1.1 N 17 28 9 15 - - 0.0
22/12:30pm 12.0 9.3 7.3 73 2.4 N 11 19 6 10 - - 0.0
22/12:00pm 10.1 7.4 7.5 84 1.3 N 11 20 6 11 - - 0.0
22/11:30am 10.4 7.5 8.2 86 1.1 N 13 20 7 11 - - 0.0
22/11:00am 9.7 7.7 7.1 84 1.3 N 7 15 4 8 - - 0.0
22/10:30am 8.6 6.8 7.2 91 0.7 N 6 13 3 7 - - 0.0
22/10:00am 8.8 5.6 6.9 88 1.0 N 13 22 7 12 - - 0.0
22/09:30am 7.9 3.9 6.7 92 0.6 N 17 22 9 12 - - 0.0
22/09:00am 7.1 2.7 6.4 95 0.3 N 19 26 10 14 - - 0.2
22/08:30am 6.7 2.5 5.7 93 0.5 N 17 22 9 12 - - 0.2
22/08:00am 6.6 2.1 5.9 95 0.3 NNW 19 24 10 13 - - 0.2
22/07:30am 6.4 0.8 5.2 92 0.6 NNW 24 33 13 18 - - 0.2
22/07:00am 6.7 0.7 5.2 90 0.7 NNW 26 33 14 18 - - 0.2
22/06:30am 6.1 -0.1 4.4 89 0.8 NW 26 32 14 17 - - 0.2
22/06:00am 5.9 -0.5 3.1 82 1.3 NW 26 32 14 17 - - 0.2
22/05:30am 5.4 -0.2 3.6 88 0.8 NW 22 28 12 15 - - 0.2
22/05:00am 5.6 -0.3 3.8 88 0.8 NW 24 30 13 16 - - 0.2
22/04:30am 5.5 0.4 4.2 91 0.6 NNW 20 22 11 12 - - 0.2
22/04:00am 5.1 0.5 3.9 92 0.5 NNW 17 24 9 13 - - 0.2
22/03:30am 5.7 0.6 3.9 88 0.8 NNW 20 28 11 15 - - 0.2
22/03:00am 5.1 0.0 2.8 85 1.0 WNW 19 26 10 14 - - 0.2
22/02:30am 4.8 -0.4 3.5 91 0.6 WNW 20 24 11 13 - - 0.2
22/02:00am 4.8 0.6 3.8 93 0.5 WNW 15 20 8 11 - - 0.2
22/01:30am 5.1 0.2 4.2 94 0.4 NW 19 26 10 14 - - 0.2
22/01:00am 5.5 -0.2 4.9 96 0.3 WNW 24 32 13 17 - - 0.2
22/12:30am 6.0 1.4 5.4 96 0.3 WNW 19 28 10 15 - - 0.2
22/12:00am 6.3 1.2 5.9 97 0.2 WNW 22 28 12 15 - - 0.2
 
Date/Time
EDT
Tmp

°C
App
Tmp
°C
Dew
Point
°C
Rel
Hum
%
Delta-T

°C
Wind Press
QNH
hPa
Press
MSL
hPa
Rain
since
9 am
mm
Dir
 
Spd
km/h
Gust
km/h
Spd
kts
Gust
kts
21/11:30pm 7.0 3.0 6.6 97 0.2 NW 17 24 9 13 - - 0.0
21/11:00pm 7.3 4.0 6.6 95 0.3 NW 13 22 7 12 - - 0.0
21/10:30pm 7.1 4.1 6.2 94 0.4 W 11 15 6 8 - - 0.0
21/10:00pm 7.4 5.3 5.7 89 0.8 WNW 6 13 3 7 - - 0.0
21/09:30pm 7.5 2.8 5.3 86 1.1 SW 19 26 10 14 - - 0.0
21/09:00pm 7.7 3.0 5.2 84 1.2 W 19 24 10 13 - - 0.0
21/08:30pm 8.4 2.4 5.3 81 1.5 WSW 26 37 14 20 - - 0.0
21/08:00pm 9.4 2.5 4.6 72 2.3 WSW 30 37 16 20 - - 0.0
21/07:30pm 10.4 3.4 3.9 64 3.1 W 30 39 16 21 - - 0.0
21/07:10pm 11.8 4.9 2.8 54 4.2 W 28 46 15 25 - - 0.0
21/07:00pm 12.3 7.4 1.9 49 4.8 WNW 17 26 9 14 - - 0.0
21/06:30pm 13.0 6.1 0.4 42 5.7 WNW 26 39 14 21 - - 0.0
21/06:00pm 14.2 9.1 4.2 51 4.9 NW 20 32 11 17 - - 0.0
21/05:30pm 14.8 9.0 4.5 50 5.1 WNW 24 33 13 18 - - 0.0
21/05:00pm 14.0 8.2 6.1 59 4.0 W 26 39 14 21 - - 0.0
21/04:30pm 14.9 8.9 7.0 59 4.1 WSW 28 37 15 20 - - 0.0
21/04:00pm 14.9 10.0 6.7 58 4.3 WSW 22 33 12 18 - - 0.0
21/03:30pm 15.3 10.3 6.6 56 4.5 WSW 22 32 12 17 - - 0.0
21/03:00pm 14.5 7.3 6.1 57 4.3 WNW 33 43 18 23 - - 0.0
21/02:30pm 13.6 6.9 5.7 59 4.0 WNW 30 43 16 23 - - 0.0
21/02:00pm 13.4 6.2 6.0 61 3.8 WNW 33 46 18 25 - - 0.0
21/01:30pm 12.8 5.7 5.7 62 3.6 W 32 43 17 23 - - 0.0
21/01:00pm 12.7 5.9 4.9 59 3.9 WNW 30 41 16 22 - - 0.0
21/12:30pm 11.9 5.5 3.2 55 4.1 WNW 26 35 14 19 - - 0.0
21/12:00pm 11.5 3.8 2.5 54 4.2 WNW 32 43 17 23 - - 0.0
21/11:30am 13.6 5.8 2.8 48 5.2 W 33 43 18 23 - - 0.0
21/11:00am 11.7 3.8 2.2 52 4.4 W 33 44 18 24 - - 0.0
21/10:42am 11.6 3.1 1.0 48 4.8 W 35 54 19 29 - - 0.0
21/10:30am 11.7 3.5 0.5 46 5.0 W 33 43 18 23 - - 0.0
21/10:00am 11.4 3.6 -0.7 43 5.2 W 30 37 16 20 - - 0.0
21/09:30am 10.7 4.3 1.0 51 4.3 W 24 37 13 20 - - 0.0
21/09:00am 8.4 1.5 0.1 56 3.6 W 26 33 14 18 - - 0.6
21/08:30am 6.3 -1.0 2.6 77 1.7 WNW 30 39 16 21 - - 0.6
21/08:00am 5.4 -0.7 4.7 95 0.3 NW 26 33 14 18 - - 0.6
21/07:30am 5.1 -1.0 4.8 98 0.1 NW 26 32 14 17 - - 0.6
21/07:00am 4.8 -1.7 4.5 98 0.1 NNW 28 33 15 18 - - 0.6
21/06:30am 4.5 -1.7 4.2 98 0.1 NNW 26 33 14 18 - - 0.6
21/06:00am 4.0 -1.9 3.7 98 0.1 NW 24 32 13 17 - - 0.6
21/05:30am 3.7 -2.7 3.4 98 0.1 NNW 26 32 14 17 - - 0.6
21/05:00am 4.0 -1.9 3.7 98 0.1 NNW 24 32 13 17 - - 0.6
21/04:30am 4.4 -3.0 4.1 98 0.1 N 32 37 17 20 - - 0.6
21/04:00am 4.6 -1.6 4.3 98 0.1 N 26 35 14 19 - - 0.4
21/03:30am 4.6 -2.0 4.3 98 0.1 N 28 35 15 19 - - 0.4
21/03:00am 4.3 -2.7 4.0 98 0.1 N 30 35 16 19 - - 0.4
21/02:30am 4.4 -1.8 4.1 98 0.1 N 26 32 14 17 - - 0.4
21/02:00am 4.2 -0.9 3.9 98 0.1 N 20 24 11 13 - - 0.2
21/01:30am 4.1 -0.5 3.8 98 0.1 N 17 20 9 11 - - 0.2
21/01:00am 4.2 0.0 3.9 98 0.1 N 15 20 8 11 - - 0.2
21/12:30am 4.2 0.0 3.9 98 0.1 N 15 19 8 10 - - 0.2
21/12:00am 4.5 1.5 4.2 98 0.1 NNW 9 13 5 7 - - 0.2
 
Date/Time
EDT
Tmp

°C
App
Tmp
°C
Dew
Point
°C
Rel
Hum
%
Delta-T

°C
Wind Press
QNH
hPa
Press
MSL
hPa
Rain
since
9 am
mm
Dir
 
Spd
km/h
Gust
km/h
Spd
kts
Gust
kts
20/11:30pm 4.6 2.0 4.3 98 0.1 N 7 11 4 6 - - 0.2
20/11:00pm 4.5 1.1 4.1 97 0.2 N 11 19 6 10 - - 0.2
20/10:30pm 4.3 1.3 3.9 97 0.2 NNW 9 15 5 8 - - 0.2
20/10:00pm 3.7 0.0 2.4 91 0.6 WNW 11 13 6 7 - - 0.2
20/09:30pm 4.0 0.3 2.4 89 0.7 WSW 11 15 6 8 - - 0.2
20/09:00pm 4.7 0.3 2.6 86 0.9 WSW 15 17 8 9 - - 0.2
20/08:30pm 5.9 1.4 2.4 78 1.6 WSW 15 19 8 10 - - 0.2
20/08:00pm 6.7 1.3 2.4 74 1.9 WSW 20 24 11 13 - - 0.2
20/07:30pm 7.4 2.0 2.3 70 2.3 W 20 28 11 15 - - 0.2
20/07:00pm 7.8 2.3 1.9 66 2.6 WSW 20 28 11 15 - - 0.2
20/06:30pm 8.6 3.3 2.0 63 3.0 WSW 19 28 10 15 - - 0.2
20/06:00pm 9.4 4.6 2.7 63 3.1 WSW 17 30 9 16 - - 0.2
20/05:30pm 9.3 3.5 2.2 61 3.2 WSW 22 32 12 17 - - 0.2
20/05:00pm 10.1 4.1 3.4 63 3.1 WSW 24 35 13 19 - - 0.2
20/04:30pm 9.9 4.7 3.4 64 3.1 WSW 20 32 11 17 - - 0.2

Latest Capital City Observations: Canberra | Sydney | Melbourne | Brisbane | Adelaide | Perth | Hobart | Darwin

Other Formats:

Comma delimited format used in spreadsheet applications
http://www.bom.gov.au/fwo/IDT60901/IDT60901.95979.axf

JavaScript Object Notation format (JSON) in row-major order
http://www.bom.gov.au/fwo/IDT60901/IDT60901.95979.json